sensor_id;sensor_type;location;lat;lon;timestamp;temperature;humidity
318;DHT22;146;53.448;10.228;2023-12-22T00:01:07;5.00;1.00
318;DHT22;146;53.448;10.228;2023-12-22T00:03:36;5.00;1.00
318;DHT22;146;53.448;10.228;2023-12-22T00:06:03;4.90;1.00
318;DHT22;146;53.448;10.228;2023-12-22T00:08:49;4.90;1.00
318;DHT22;146;53.448;10.228;2023-12-22T00:11:16;4.90;1.00
318;DHT22;146;53.448;10.228;2023-12-22T00:13:43;4.80;1.00
318;DHT22;146;53.448;10.228;2023-12-22T00:16:16;4.80;1.00
318;DHT22;146;53.448;10.228;2023-12-22T00:18:44;4.80;1.00
318;DHT22;146;53.448;10.228;2023-12-22T00:21:13;4.80;1.00
318;DHT22;146;53.448;10.228;2023-12-22T00:23:40;4.90;1.00
318;DHT22;146;53.448;10.228;2023-12-22T00:26:09;4.90;1.00
318;DHT22;146;53.448;10.228;2023-12-22T00:28:37;4.90;1.00
318;DHT22;146;53.448;10.228;2023-12-22T00:31:04;4.80;1.00
318;DHT22;146;53.448;10.228;2023-12-22T00:33:33;4.80;1.00
318;DHT22;146;53.448;10.228;2023-12-22T00:36:01;4.80;1.00
318;DHT22;146;53.448;10.228;2023-12-22T00:38:31;4.70;1.00
318;DHT22;146;53.448;10.228;2023-12-22T00:40:58;4.60;1.00
318;DHT22;146;53.448;10.228;2023-12-22T00:43:33;4.60;1.00
318;DHT22;146;53.448;10.228;2023-12-22T00:46:03;4.70;1.00
318;DHT22;146;53.448;10.228;2023-12-22T00:48:32;4.60;1.00
318;DHT22;146;53.448;10.228;2023-12-22T00:51:00;4.60;1.00
318;DHT22;146;53.448;10.228;2023-12-22T00:53:27;4.60;1.00
318;DHT22;146;53.448;10.228;2023-12-22T00:55:54;4.60;1.00
318;DHT22;146;53.448;10.228;2023-12-22T00:58:25;4.50;1.00
318;DHT22;146;53.448;10.228;2023-12-22T01:00:52;4.50;1.00
318;DHT22;146;53.448;10.228;2023-12-22T01:03:22;4.50;1.00
318;DHT22;146;53.448;10.228;2023-12-22T01:05:52;4.40;1.00
318;DHT22;146;53.448;10.228;2023-12-22T01:08:21;4.40;1.00
318;DHT22;146;53.448;10.228;2023-12-22T01:10:47;4.30;1.00
318;DHT22;146;53.448;10.228;2023-12-22T01:13:15;4.20;1.00
318;DHT22;146;53.448;10.228;2023-12-22T01:15:44;4.20;1.00
318;DHT22;146;53.448;10.228;2023-12-22T01:18:14;4.20;1.00
318;DHT22;146;53.448;10.228;2023-12-22T01:20:41;4.20;1.00
318;DHT22;146;53.448;10.228;2023-12-22T01:23:08;4.30;1.00
318;DHT22;146;53.448;10.228;2023-12-22T01:25:39;4.20;1.00
318;DHT22;146;53.448;10.228;2023-12-22T01:28:11;4.20;1.00
318;DHT22;146;53.448;10.228;2023-12-22T01:30:38;4.10;1.00
318;DHT22;146;53.448;10.228;2023-12-22T01:33:07;4.20;1.00
318;DHT22;146;53.448;10.228;2023-12-22T01:35:34;4.20;1.00
318;DHT22;146;53.448;10.228;2023-12-22T01:38:01;4.20;1.00
318;DHT22;146;53.448;10.228;2023-12-22T01:40:28;4.30;1.00
318;DHT22;146;53.448;10.228;2023-12-22T01:43:00;4.40;1.00
318;DHT22;146;53.448;10.228;2023-12-22T01:45:27;4.30;1.00
318;DHT22;146;53.448;10.228;2023-12-22T01:48:00;4.00;1.00
318;DHT22;146;53.448;10.228;2023-12-22T01:50:28;3.70;1.00
318;DHT22;146;53.448;10.228;2023-12-22T01:52:55;3.40;1.00
318;DHT22;146;53.448;10.228;2023-12-22T01:55:22;3.20;1.00
318;DHT22;146;53.448;10.228;2023-12-22T01:57:52;2.90;1.00
318;DHT22;146;53.448;10.228;2023-12-22T02:00:20;2.60;1.00
318;DHT22;146;53.448;10.228;2023-12-22T02:02:47;2.30;1.00
318;DHT22;146;53.448;10.228;2023-12-22T02:05:18;2.10;1.00
318;DHT22;146;53.448;10.228;2023-12-22T02:07:45;2.00;1.00
318;DHT22;146;53.448;10.228;2023-12-22T02:10:12;2.00;1.00
318;DHT22;146;53.448;10.228;2023-12-22T02:12:42;2.10;1.00
318;DHT22;146;53.448;10.228;2023-12-22T02:15:11;2.20;1.00
318;DHT22;146;53.448;10.228;2023-12-22T02:17:44;2.30;1.00
318;DHT22;146;53.448;10.228;2023-12-22T02:20:15;2.40;1.00
318;DHT22;146;53.448;10.228;2023-12-22T02:22:44;2.50;1.00
318;DHT22;146;53.448;10.228;2023-12-22T02:25:11;2.60;1.00
318;DHT22;146;53.448;10.228;2023-12-22T02:27:45;2.70;1.00
318;DHT22;146;53.448;10.228;2023-12-22T02:30:14;2.80;1.00
318;DHT22;146;53.448;10.228;2023-12-22T02:32:49;2.80;1.00
318;DHT22;146;53.448;10.228;2023-12-22T02:35:19;2.90;1.00
318;DHT22;146;53.448;10.228;2023-12-22T02:37:48;3.00;1.00
318;DHT22;146;53.448;10.228;2023-12-22T02:40:16;3.00;1.00
318;DHT22;146;53.448;10.228;2023-12-22T02:42:44;3.10;1.00
318;DHT22;146;53.448;10.228;2023-12-22T02:45:14;3.10;1.00
318;DHT22;146;53.448;10.228;2023-12-22T02:47:44;3.20;1.00
318;DHT22;146;53.448;10.228;2023-12-22T02:50:12;3.20;1.00
318;DHT22;146;53.448;10.228;2023-12-22T02:52:39;3.30;1.00
318;DHT22;146;53.448;10.228;2023-12-22T02:55:10;3.40;1.00
318;DHT22;146;53.448;10.228;2023-12-22T02:57:37;3.30;1.00
318;DHT22;146;53.448;10.228;2023-12-22T03:00:05;3.30;1.00
318;DHT22;146;53.448;10.228;2023-12-22T03:02:32;3.40;1.00
318;DHT22;146;53.448;10.228;2023-12-22T03:05:02;3.40;1.00
318;DHT22;146;53.448;10.228;2023-12-22T03:07:32;3.30;1.00
318;DHT22;146;53.448;10.228;2023-12-22T03:10:01;3.20;1.00
318;DHT22;146;53.448;10.228;2023-12-22T03:12:29;3.00;1.00
318;DHT22;146;53.448;10.228;2023-12-22T03:14:56;3.00;1.00
318;DHT22;146;53.448;10.228;2023-12-22T03:17:27;2.90;1.00
318;DHT22;146;53.448;10.228;2023-12-22T03:19:57;2.90;1.00
318;DHT22;146;53.448;10.228;2023-12-22T03:22:23;2.90;1.00
318;DHT22;146;53.448;10.228;2023-12-22T03:24:56;2.80;1.00
318;DHT22;146;53.448;10.228;2023-12-22T03:27:23;2.80;1.00
318;DHT22;146;53.448;10.228;2023-12-22T03:29:51;2.80;1.00
318;DHT22;146;53.448;10.228;2023-12-22T03:32:21;2.80;1.00
318;DHT22;146;53.448;10.228;2023-12-22T03:34:48;2.90;1.00
318;DHT22;146;53.448;10.228;2023-12-22T03:37:15;2.90;1.00
318;DHT22;146;53.448;10.228;2023-12-22T03:39:44;2.90;1.00
318;DHT22;146;53.448;10.228;2023-12-22T03:42:11;2.90;1.00
318;DHT22;146;53.448;10.228;2023-12-22T03:44:38;2.90;1.00
318;DHT22;146;53.448;10.228;2023-12-22T03:47:10;2.80;1.00
318;DHT22;146;53.448;10.228;2023-12-22T03:49:37;2.80;1.00
318;DHT22;146;53.448;10.228;2023-12-22T03:52:04;2.80;1.00
318;DHT22;146;53.448;10.228;2023-12-22T03:54:33;2.80;1.00
318;DHT22;146;53.448;10.228;2023-12-22T03:57:00;2.80;1.00
318;DHT22;146;53.448;10.228;2023-12-22T03:59:26;2.80;1.00
318;DHT22;146;53.448;10.228;2023-12-22T04:01:53;2.90;1.00
318;DHT22;146;53.448;10.228;2023-12-22T04:04:29;2.90;1.00
318;DHT22;146;53.448;10.228;2023-12-22T04:06:58;3.00;1.00
318;DHT22;146;53.448;10.228;2023-12-22T04:09:31;2.90;1.00
318;DHT22;146;53.448;10.228;2023-12-22T04:11:58;3.00;1.00
318;DHT22;146;53.448;10.228;2023-12-22T04:14:24;3.10;1.00
318;DHT22;146;53.448;10.228;2023-12-22T04:16:54;3.10;1.00
318;DHT22;146;53.448;10.228;2023-12-22T04:19:26;3.10;1.00
318;DHT22;146;53.448;10.228;2023-12-22T04:21:53;3.10;1.00
318;DHT22;146;53.448;10.228;2023-12-22T04:24:19;3.20;1.00
318;DHT22;146;53.448;10.228;2023-12-22T04:26:48;3.20;1.00
318;DHT22;146;53.448;10.228;2023-12-22T04:29:18;3.30;1.00
318;DHT22;146;53.448;10.228;2023-12-22T04:31:45;3.30;1.00
318;DHT22;146;53.448;10.228;2023-12-22T04:34:13;3.40;1.00
318;DHT22;146;53.448;10.228;2023-12-22T04:36:55;3.30;1.00
318;DHT22;146;53.448;10.228;2023-12-22T04:39:24;3.30;1.00
318;DHT22;146;53.448;10.228;2023-12-22T04:41:51;3.30;1.00
318;DHT22;146;53.448;10.228;2023-12-22T04:44:18;3.30;1.00
318;DHT22;146;53.448;10.228;2023-12-22T04:46:45;3.30;1.00
318;DHT22;146;53.448;10.228;2023-12-22T04:49:12;3.30;1.00
318;DHT22;146;53.448;10.228;2023-12-22T04:51:43;3.30;1.00
318;DHT22;146;53.448;10.228;2023-12-22T04:54:12;3.40;1.00
318;DHT22;146;53.448;10.228;2023-12-22T04:56:38;3.50;1.00
318;DHT22;146;53.448;10.228;2023-12-22T04:59:05;3.60;1.00
318;DHT22;146;53.448;10.228;2023-12-22T05:01:32;3.60;1.00
318;DHT22;146;53.448;10.228;2023-12-22T05:04:08;3.60;1.00
318;DHT22;146;53.448;10.228;2023-12-22T05:06:39;3.70;1.00
318;DHT22;146;53.448;10.228;2023-12-22T05:09:06;3.70;1.00
318;DHT22;146;53.448;10.228;2023-12-22T05:11:34;3.70;1.00
318;DHT22;146;53.448;10.228;2023-12-22T05:14:01;3.80;1.00
318;DHT22;146;53.448;10.228;2023-12-22T05:16:28;3.80;1.00
318;DHT22;146;53.448;10.228;2023-12-22T05:18:56;3.90;1.00
318;DHT22;146;53.448;10.228;2023-12-22T05:21:27;4.00;1.00
318;DHT22;146;53.448;10.228;2023-12-22T05:23:57;3.90;1.00
318;DHT22;146;53.448;10.228;2023-12-22T05:26:28;3.90;1.00
318;DHT22;146;53.448;10.228;2023-12-22T05:28:57;3.80;1.00
318;DHT22;146;53.448;10.228;2023-12-22T05:31:26;3.70;1.00
318;DHT22;146;53.448;10.228;2023-12-22T05:33:54;3.60;1.00
318;DHT22;146;53.448;10.228;2023-12-22T05:36:21;3.50;1.00
318;DHT22;146;53.448;10.228;2023-12-22T05:38:48;3.40;1.00
318;DHT22;146;53.448;10.228;2023-12-22T05:41:42;3.20;1.00
318;DHT22;146;53.448;10.228;2023-12-22T05:44:21;3.00;1.00
318;DHT22;146;53.448;10.228;2023-12-22T05:47:03;2.90;1.00
318;DHT22;146;53.448;10.228;2023-12-22T05:49:30;2.80;1.00
318;DHT22;146;53.448;10.228;2023-12-22T05:51:57;2.80;1.00
318;DHT22;146;53.448;10.228;2023-12-22T05:54:27;2.80;1.00
318;DHT22;146;53.448;10.228;2023-12-22T05:56:54;2.80;1.00
318;DHT22;146;53.448;10.228;2023-12-22T05:59:28;2.90;1.00
318;DHT22;146;53.448;10.228;2023-12-22T06:02:03;2.80;1.00
318;DHT22;146;53.448;10.228;2023-12-22T06:04:30;2.70;1.00
318;DHT22;146;53.448;10.228;2023-12-22T06:07:00;2.60;1.00
318;DHT22;146;53.448;10.228;2023-12-22T06:09:27;2.60;1.00
318;DHT22;146;53.448;10.228;2023-12-22T06:11:54;2.50;1.00
318;DHT22;146;53.448;10.228;2023-12-22T06:14:37;2.40;1.00
318;DHT22;146;53.448;10.228;2023-12-22T06:17:04;2.40;1.00
318;DHT22;146;53.448;10.228;2023-12-22T06:19:31;2.40;1.00
318;DHT22;146;53.448;10.228;2023-12-22T06:21:58;2.40;1.00
318;DHT22;146;53.448;10.228;2023-12-22T06:24:25;2.40;1.00
318;DHT22;146;53.448;10.228;2023-12-22T06:26:54;2.50;1.00
318;DHT22;146;53.448;10.228;2023-12-22T06:29:24;2.60;1.00
318;DHT22;146;53.448;10.228;2023-12-22T06:31:52;2.60;1.00
318;DHT22;146;53.448;10.228;2023-12-22T06:34:19;2.70;1.00
318;DHT22;146;53.448;10.228;2023-12-22T06:36:46;2.70;1.00
318;DHT22;146;53.448;10.228;2023-12-22T06:39:12;2.70;1.00
318;DHT22;146;53.448;10.228;2023-12-22T06:41:39;2.80;1.00
318;DHT22;146;53.448;10.228;2023-12-22T06:44:10;2.90;1.00
318;DHT22;146;53.448;10.228;2023-12-22T06:46:37;2.90;1.00
318;DHT22;146;53.448;10.228;2023-12-22T06:49:08;3.00;1.00
318;DHT22;146;53.448;10.228;2023-12-22T06:51:35;3.10;1.00
318;DHT22;146;53.448;10.228;2023-12-22T06:54:05;3.20;1.00
318;DHT22;146;53.448;10.228;2023-12-22T06:56:33;3.20;1.00
318;DHT22;146;53.448;10.228;2023-12-22T06:59:00;3.30;1.00
318;DHT22;146;53.448;10.228;2023-12-22T07:01:37;3.30;1.00
318;DHT22;146;53.448;10.228;2023-12-22T07:04:04;3.40;1.00
318;DHT22;146;53.448;10.228;2023-12-22T07:06:34;3.40;1.00
318;DHT22;146;53.448;10.228;2023-12-22T07:09:32;3.40;1.00
318;DHT22;146;53.448;10.228;2023-12-22T07:11:58;3.30;1.00
318;DHT22;146;53.448;10.228;2023-12-22T07:14:28;3.30;1.00
318;DHT22;146;53.448;10.228;2023-12-22T07:16:55;3.30;1.00
318;DHT22;146;53.448;10.228;2023-12-22T07:19:23;3.20;1.00
318;DHT22;146;53.448;10.228;2023-12-22T07:21:51;3.20;1.00
318;DHT22;146;53.448;10.228;2023-12-22T07:24:21;3.20;1.00
318;DHT22;146;53.448;10.228;2023-12-22T07:26:54;3.30;1.00
318;DHT22;146;53.448;10.228;2023-12-22T07:29:27;3.30;1.00
318;DHT22;146;53.448;10.228;2023-12-22T07:31:59;3.30;1.00
318;DHT22;146;53.448;10.228;2023-12-22T07:34:29;3.40;1.00
318;DHT22;146;53.448;10.228;2023-12-22T07:37:05;3.40;1.00
318;DHT22;146;53.448;10.228;2023-12-22T07:39:34;3.50;1.00
318;DHT22;146;53.448;10.228;2023-12-22T07:42:10;3.50;1.00
318;DHT22;146;53.448;10.228;2023-12-22T07:44:39;3.70;1.00
318;DHT22;146;53.448;10.228;2023-12-22T07:47:07;3.70;1.00
318;DHT22;146;53.448;10.228;2023-12-22T07:49:41;3.90;1.00
318;DHT22;146;53.448;10.228;2023-12-22T07:52:09;4.00;1.00
318;DHT22;146;53.448;10.228;2023-12-22T07:54:45;4.00;1.00
318;DHT22;146;53.448;10.228;2023-12-22T07:57:15;4.00;1.00
318;DHT22;146;53.448;10.228;2023-12-22T07:59:42;3.70;1.00
318;DHT22;146;53.448;10.228;2023-12-22T08:02:09;3.40;1.00
318;DHT22;146;53.448;10.228;2023-12-22T08:04:38;3.20;1.00
318;DHT22;146;53.448;10.228;2023-12-22T08:07:20;3.10;1.00
318;DHT22;146;53.448;10.228;2023-12-22T08:09:53;3.10;1.00
318;DHT22;146;53.448;10.228;2023-12-22T08:12:20;3.10;1.00
318;DHT22;146;53.448;10.228;2023-12-22T08:14:47;3.10;1.00
318;DHT22;146;53.448;10.228;2023-12-22T08:17:14;3.20;1.00
318;DHT22;146;53.448;10.228;2023-12-22T08:19:41;3.20;1.00
318;DHT22;146;53.448;10.228;2023-12-22T08:22:09;3.30;1.00
318;DHT22;146;53.448;10.228;2023-12-22T08:24:37;3.30;1.00
318;DHT22;146;53.448;10.228;2023-12-22T08:27:04;3.30;1.00
318;DHT22;146;53.448;10.228;2023-12-22T08:29:31;3.30;1.00
318;DHT22;146;53.448;10.228;2023-12-22T08:31:58;3.00;1.00
318;DHT22;146;53.448;10.228;2023-12-22T08:34:25;2.70;1.00
318;DHT22;146;53.448;10.228;2023-12-22T08:36:55;2.60;1.00
318;DHT22;146;53.448;10.228;2023-12-22T08:39:22;2.50;1.00
318;DHT22;146;53.448;10.228;2023-12-22T08:41:52;2.40;1.00
318;DHT22;146;53.448;10.228;2023-12-22T08:44:19;2.40;1.00
318;DHT22;146;53.448;10.228;2023-12-22T08:46:46;2.30;1.00
318;DHT22;146;53.448;10.228;2023-12-22T08:49:12;2.30;1.00
318;DHT22;146;53.448;10.228;2023-12-22T08:51:39;2.30;1.00
318;DHT22;146;53.448;10.228;2023-12-22T08:54:10;2.30;1.00
318;DHT22;146;53.448;10.228;2023-12-22T08:56:36;2.30;1.00
318;DHT22;146;53.448;10.228;2023-12-22T08:59:08;2.40;1.00
318;DHT22;146;53.448;10.228;2023-12-22T09:01:38;2.50;1.00
318;DHT22;146;53.448;10.228;2023-12-22T09:04:06;2.60;1.00
318;DHT22;146;53.448;10.228;2023-12-22T09:06:33;2.70;1.00
318;DHT22;146;53.448;10.228;2023-12-22T09:09:03;3.00;1.00
318;DHT22;146;53.448;10.228;2023-12-22T09:11:30;3.20;1.00
318;DHT22;146;53.448;10.228;2023-12-22T09:13:57;3.30;1.00
318;DHT22;146;53.448;10.228;2023-12-22T09:16:25;3.50;1.00
318;DHT22;146;53.448;10.228;2023-12-22T09:18:52;3.50;1.00
318;DHT22;146;53.448;10.228;2023-12-22T09:21:19;3.60;1.00
318;DHT22;146;53.448;10.228;2023-12-22T09:24:01;3.80;1.00
318;DHT22;146;53.448;10.228;2023-12-22T09:26:28;4.00;1.00
318;DHT22;146;53.448;10.228;2023-12-22T09:28:55;4.00;1.00
318;DHT22;146;53.448;10.228;2023-12-22T09:31:22;4.10;1.00
318;DHT22;146;53.448;10.228;2023-12-22T09:34:18;4.10;1.00
318;DHT22;146;53.448;10.228;2023-12-22T09:37:17;4.10;1.00
318;DHT22;146;53.448;10.228;2023-12-22T09:39:46;4.00;1.00
318;DHT22;146;53.448;10.228;2023-12-22T09:42:12;4.10;1.00
318;DHT22;146;53.448;10.228;2023-12-22T09:44:51;4.20;1.00
318;DHT22;146;53.448;10.228;2023-12-22T09:47:19;4.20;1.00
318;DHT22;146;53.448;10.228;2023-12-22T09:49:49;4.30;1.00
318;DHT22;146;53.448;10.228;2023-12-22T09:52:23;4.40;1.00
318;DHT22;146;53.448;10.228;2023-12-22T09:54:52;4.40;1.00
318;DHT22;146;53.448;10.228;2023-12-22T09:57:22;4.40;1.00
318;DHT22;146;53.448;10.228;2023-12-22T09:59:51;4.30;1.00
318;DHT22;146;53.448;10.228;2023-12-22T10:02:22;4.40;1.00
318;DHT22;146;53.448;10.228;2023-12-22T10:04:52;4.40;1.00
318;DHT22;146;53.448;10.228;2023-12-22T10:07:20;4.40;1.00
318;DHT22;146;53.448;10.228;2023-12-22T10:09:49;4.40;1.00
318;DHT22;146;53.448;10.228;2023-12-22T10:12:17;4.60;1.00
318;DHT22;146;53.448;10.228;2023-12-22T10:14:50;4.70;1.00
318;DHT22;146;53.448;10.228;2023-12-22T10:17:20;4.80;1.00
318;DHT22;146;53.448;10.228;2023-12-22T10:19:52;4.70;1.00
318;DHT22;146;53.448;10.228;2023-12-22T10:22:19;4.70;1.00
318;DHT22;146;53.448;10.228;2023-12-22T10:24:49;4.80;1.00
318;DHT22;146;53.448;10.228;2023-12-22T10:27:17;4.80;1.00
318;DHT22;146;53.448;10.228;2023-12-22T10:29:48;4.80;1.00
318;DHT22;146;53.448;10.228;2023-12-22T10:32:16;4.90;1.00
318;DHT22;146;53.448;10.228;2023-12-22T10:34:45;4.80;1.00
318;DHT22;146;53.448;10.228;2023-12-22T10:37:14;4.80;1.00
318;DHT22;146;53.448;10.228;2023-12-22T10:39:41;4.80;1.00
318;DHT22;146;53.448;10.228;2023-12-22T10:42:08;4.90;1.00
318;DHT22;146;53.448;10.228;2023-12-22T10:44:40;4.80;1.00
318;DHT22;146;53.448;10.228;2023-12-22T10:47:07;4.90;1.00
318;DHT22;146;53.448;10.228;2023-12-22T10:49:36;4.90;1.00
318;DHT22;146;53.448;10.228;2023-12-22T10:52:07;5.00;1.00
318;DHT22;146;53.448;10.228;2023-12-22T10:54:38;4.80;1.00
318;DHT22;146;53.448;10.228;2023-12-22T10:57:04;4.50;1.00
318;DHT22;146;53.448;10.228;2023-12-22T10:59:33;4.30;1.00
318;DHT22;146;53.448;10.228;2023-12-22T11:02:04;4.10;1.00
318;DHT22;146;53.448;10.228;2023-12-22T11:04:35;4.00;1.00
318;DHT22;146;53.448;10.228;2023-12-22T11:07:04;3.90;1.00
318;DHT22;146;53.448;10.228;2023-12-22T11:09:36;3.70;1.00
318;DHT22;146;53.448;10.228;2023-12-22T11:12:06;3.60;1.00
318;DHT22;146;53.448;10.228;2023-12-22T11:14:37;3.50;1.00
318;DHT22;146;53.448;10.228;2023-12-22T11:17:06;3.40;1.00
318;DHT22;146;53.448;10.228;2023-12-22T11:19:35;3.30;1.00
318;DHT22;146;53.448;10.228;2023-12-22T11:22:09;3.40;1.00
318;DHT22;146;53.448;10.228;2023-12-22T11:24:38;3.40;1.00
318;DHT22;146;53.448;10.228;2023-12-22T11:27:09;3.30;1.00
318;DHT22;146;53.448;10.228;2023-12-22T11:29:36;3.30;1.00
318;DHT22;146;53.448;10.228;2023-12-22T11:32:05;3.20;1.00
318;DHT22;146;53.448;10.228;2023-12-22T11:34:36;3.20;1.00
318;DHT22;146;53.448;10.228;2023-12-22T11:37:05;3.20;1.00
318;DHT22;146;53.448;10.228;2023-12-22T11:39:34;3.30;1.00
318;DHT22;146;53.448;10.228;2023-12-22T11:42:02;3.30;1.00
318;DHT22;146;53.448;10.228;2023-12-22T11:44:34;3.30;1.00
318;DHT22;146;53.448;10.228;2023-12-22T11:47:05;3.30;1.00
318;DHT22;146;53.448;10.228;2023-12-22T11:49:33;3.30;1.00
318;DHT22;146;53.448;10.228;2023-12-22T11:52:17;3.30;1.00
318;DHT22;146;53.448;10.228;2023-12-22T11:54:45;3.40;1.00
318;DHT22;146;53.448;10.228;2023-12-22T11:57:33;3.30;1.00
318;DHT22;146;53.448;10.228;2023-12-22T12:00:06;3.30;1.00
318;DHT22;146;53.448;10.228;2023-12-22T12:02:39;3.20;1.00
318;DHT22;146;53.448;10.228;2023-12-22T12:05:07;3.30;1.00
318;DHT22;146;53.448;10.228;2023-12-22T12:07:45;3.30;1.00
318;DHT22;146;53.448;10.228;2023-12-22T12:10:36;3.40;1.00
318;DHT22;146;53.448;10.228;2023-12-22T12:13:04;3.40;1.00
318;DHT22;146;53.448;10.228;2023-12-22T12:15:33;3.40;1.00
318;DHT22;146;53.448;10.228;2023-12-22T12:18:09;3.40;1.00
318;DHT22;146;53.448;10.228;2023-12-22T12:20:38;3.30;1.00
318;DHT22;146;53.448;10.228;2023-12-22T12:23:15;3.30;1.00
318;DHT22;146;53.448;10.228;2023-12-22T12:25:42;3.40;1.00
318;DHT22;146;53.448;10.228;2023-12-22T12:28:11;3.40;1.00
318;DHT22;146;53.448;10.228;2023-12-22T12:30:40;3.40;1.00
318;DHT22;146;53.448;10.228;2023-12-22T12:33:08;3.50;1.00
318;DHT22;146;53.448;10.228;2023-12-22T12:35:41;3.40;1.00
318;DHT22;146;53.448;10.228;2023-12-22T12:38:17;3.40;1.00
318;DHT22;146;53.448;10.228;2023-12-22T12:40:45;3.50;1.00
318;DHT22;146;53.448;10.228;2023-12-22T12:43:20;3.50;1.00
318;DHT22;146;53.448;10.228;2023-12-22T12:46:04;3.60;1.00
318;DHT22;146;53.448;10.228;2023-12-22T12:49:02;3.60;1.00
318;DHT22;146;53.448;10.228;2023-12-22T12:51:35;3.70;1.00
318;DHT22;146;53.448;10.228;2023-12-22T12:54:07;3.70;1.00
318;DHT22;146;53.448;10.228;2023-12-22T12:56:39;3.70;1.00
318;DHT22;146;53.448;10.228;2023-12-22T12:59:16;3.70;1.00
318;DHT22;146;53.448;10.228;2023-12-22T13:01:48;3.80;1.00
318;DHT22;146;53.448;10.228;2023-12-22T13:04:21;3.90;1.00
318;DHT22;146;53.448;10.228;2023-12-22T13:07:02;4.00;1.00
318;DHT22;146;53.448;10.228;2023-12-22T13:09:35;4.20;1.00
318;DHT22;146;53.448;10.228;2023-12-22T13:12:03;4.30;1.00
318;DHT22;146;53.448;10.228;2023-12-22T13:14:30;4.30;1.00
318;DHT22;146;53.448;10.228;2023-12-22T13:16:59;4.40;1.00
318;DHT22;146;53.448;10.228;2023-12-22T13:19:28;4.50;1.00
318;DHT22;146;53.448;10.228;2023-12-22T13:21:55;4.50;1.00
318;DHT22;146;53.448;10.228;2023-12-22T13:24:22;4.60;1.00
318;DHT22;146;53.448;10.228;2023-12-22T13:27:01;4.60;1.00
318;DHT22;146;53.448;10.228;2023-12-22T13:29:51;4.70;1.00
318;DHT22;146;53.448;10.228;2023-12-22T13:32:33;4.80;1.00
318;DHT22;146;53.448;10.228;2023-12-22T13:35:07;4.80;1.00
318;DHT22;146;53.448;10.228;2023-12-22T13:37:40;4.80;1.00
318;DHT22;146;53.448;10.228;2023-12-22T13:40:12;4.80;1.00
318;DHT22;146;53.448;10.228;2023-12-22T13:42:39;5.00;1.00
318;DHT22;146;53.448;10.228;2023-12-22T13:45:12;5.00;1.00
318;DHT22;146;53.448;10.228;2023-12-22T13:47:47;5.00;1.00
318;DHT22;146;53.448;10.228;2023-12-22T13:50:21;5.00;1.00
318;DHT22;146;53.448;10.228;2023-12-22T13:53:08;5.00;1.00
318;DHT22;146;53.448;10.228;2023-12-22T13:55:35;5.00;1.00
318;DHT22;146;53.448;10.228;2023-12-22T13:58:05;4.90;1.00
318;DHT22;146;53.448;10.228;2023-12-22T14:00:31;4.90;1.00
318;DHT22;146;53.448;10.228;2023-12-22T14:03:01;5.00;1.00
318;DHT22;146;53.448;10.228;2023-12-22T14:05:34;4.90;1.00
318;DHT22;146;53.448;10.228;2023-12-22T14:08:01;4.90;1.00
318;DHT22;146;53.448;10.228;2023-12-22T14:10:28;4.90;1.00
318;DHT22;146;53.448;10.228;2023-12-22T14:13:13;4.90;1.00
318;DHT22;146;53.448;10.228;2023-12-22T14:15:41;4.90;1.00
318;DHT22;146;53.448;10.228;2023-12-22T14:18:13;4.90;1.00
318;DHT22;146;53.448;10.228;2023-12-22T14:20:45;4.90;1.00
318;DHT22;146;53.448;10.228;2023-12-22T14:23:14;5.00;1.00
318;DHT22;146;53.448;10.228;2023-12-22T14:25:48;5.00;1.00
318;DHT22;146;53.448;10.228;2023-12-22T14:28:15;4.90;1.00
318;DHT22;146;53.448;10.228;2023-12-22T14:30:45;4.90;1.00
318;DHT22;146;53.448;10.228;2023-12-22T14:33:13;4.90;1.00
318;DHT22;146;53.448;10.228;2023-12-22T14:35:41;4.80;1.00
318;DHT22;146;53.448;10.228;2023-12-22T14:38:13;4.80;1.00
318;DHT22;146;53.448;10.228;2023-12-22T14:40:44;4.60;1.00
318;DHT22;146;53.448;10.228;2023-12-22T14:43:19;4.50;1.00
318;DHT22;146;53.448;10.228;2023-12-22T14:46:28;4.50;1.00
318;DHT22;146;53.448;10.228;2023-12-22T14:49:25;4.40;1.00
318;DHT22;146;53.448;10.228;2023-12-22T14:51:55;4.30;1.00
318;DHT22;146;53.448;10.228;2023-12-22T14:54:28;4.20;1.00
318;DHT22;146;53.448;10.228;2023-12-22T14:56:57;4.30;1.00
318;DHT22;146;53.448;10.228;2023-12-22T14:59:57;4.20;1.00
318;DHT22;146;53.448;10.228;2023-12-22T15:02:32;4.20;1.00
318;DHT22;146;53.448;10.228;2023-12-22T15:08:30;4.20;1.00
318;DHT22;146;53.448;10.228;2023-12-22T15:10:57;4.20;1.00
318;DHT22;146;53.448;10.228;2023-12-22T15:13:24;4.30;1.00
318;DHT22;146;53.448;10.228;2023-12-22T15:16:04;4.30;1.00
318;DHT22;146;53.448;10.228;2023-12-22T15:18:31;4.30;1.00
318;DHT22;146;53.448;10.228;2023-12-22T15:20:58;4.40;1.00
318;DHT22;146;53.448;10.228;2023-12-22T15:23:47;4.40;1.00
318;DHT22;146;53.448;10.228;2023-12-22T15:26:20;4.40;1.00
318;DHT22;146;53.448;10.228;2023-12-22T15:28:46;4.50;1.00
318;DHT22;146;53.448;10.228;2023-12-22T15:31:14;4.60;1.00
318;DHT22;146;53.448;10.228;2023-12-22T15:33:46;4.60;1.00
318;DHT22;146;53.448;10.228;2023-12-22T15:36:17;4.60;1.00
318;DHT22;146;53.448;10.228;2023-12-22T15:38:45;4.60;1.00
318;DHT22;146;53.448;10.228;2023-12-22T15:41:15;4.60;1.00
318;DHT22;146;53.448;10.228;2023-12-22T15:43:42;4.50;1.00
318;DHT22;146;53.448;10.228;2023-12-22T15:46:09;4.50;1.00
318;DHT22;146;53.448;10.228;2023-12-22T15:48:37;4.50;1.00
318;DHT22;146;53.448;10.228;2023-12-22T15:53:59;4.50;1.00
318;DHT22;146;53.448;10.228;2023-12-22T15:56:26;4.40;1.00
318;DHT22;146;53.448;10.228;2023-12-22T15:58:53;4.40;1.00
318;DHT22;146;53.448;10.228;2023-12-22T16:01:21;4.40;1.00
318;DHT22;146;53.448;10.228;2023-12-22T16:03:51;4.50;1.00
318;DHT22;146;53.448;10.228;2023-12-22T16:06:18;4.40;1.00
318;DHT22;146;53.448;10.228;2023-12-22T16:08:45;4.50;1.00
318;DHT22;146;53.448;10.228;2023-12-22T16:11:19;4.50;1.00
318;DHT22;146;53.448;10.228;2023-12-22T16:13:46;4.50;1.00
318;DHT22;146;53.448;10.228;2023-12-22T16:16:17;4.40;1.00
318;DHT22;146;53.448;10.228;2023-12-22T16:18:44;4.40;1.00
318;DHT22;146;53.448;10.228;2023-12-22T16:21:11;4.40;1.00
318;DHT22;146;53.448;10.228;2023-12-22T16:23:38;4.30;1.00
318;DHT22;146;53.448;10.228;2023-12-22T16:26:21;4.30;1.00
318;DHT22;146;53.448;10.228;2023-12-22T16:28:51;4.20;1.00
318;DHT22;146;53.448;10.228;2023-12-22T16:31:18;4.20;1.00
318;DHT22;146;53.448;10.228;2023-12-22T16:33:45;4.20;1.00
318;DHT22;146;53.448;10.228;2023-12-22T16:36:12;4.20;1.00
318;DHT22;146;53.448;10.228;2023-12-22T16:38:40;4.30;1.00
318;DHT22;146;53.448;10.228;2023-12-22T16:41:07;4.40;1.00
318;DHT22;146;53.448;10.228;2023-12-22T16:43:40;4.40;1.00
318;DHT22;146;53.448;10.228;2023-12-22T16:46:08;4.30;1.00
318;DHT22;146;53.448;10.228;2023-12-22T16:48:35;4.20;1.00
318;DHT22;146;53.448;10.228;2023-12-22T16:51:02;4.00;1.00
318;DHT22;146;53.448;10.228;2023-12-22T16:53:29;4.00;1.00
318;DHT22;146;53.448;10.228;2023-12-22T16:55:55;3.90;1.00
318;DHT22;146;53.448;10.228;2023-12-22T16:58:22;3.80;1.00
318;DHT22;146;53.448;10.228;2023-12-22T17:00:51;3.80;1.00
318;DHT22;146;53.448;10.228;2023-12-22T17:03:21;3.80;1.00
318;DHT22;146;53.448;10.228;2023-12-22T17:05:47;3.70;1.00
318;DHT22;146;53.448;10.228;2023-12-22T17:08:14;3.70;1.00
318;DHT22;146;53.448;10.228;2023-12-22T17:10:43;3.80;1.00
318;DHT22;146;53.448;10.228;2023-12-22T17:13:13;3.80;1.00
318;DHT22;146;53.448;10.228;2023-12-22T17:15:45;3.80;1.00
318;DHT22;146;53.448;10.228;2023-12-22T17:18:16;4.00;1.00